Time;durP1;ratioP1;P1;durP2;ratioP2;P2;SDS_P1;SDS_P2;PMS_P1;PMS_P2;Temp;Humidity;BMP_temperature;BMP_pressure;BME280_temperature;BME280_humidity;BME280_pressure;Samples;Min_cycle;Max_cycle;Signal;HPM_P1;HPM_P2
2021/01/01 00:01:54;;;;;;;1.70;1.40;;;3.50;98.20;;;;;;4968535;28;20458;-79
2021/01/01 00:04:22;;;;;;;1.67;1.40;;;3.50;98.20;;;;;;4971964;28;20467;-77
2021/01/01 00:06:50;;;;;;;1.70;1.40;;;3.50;98.20;;;;;;4970603;28;20477;-78
2021/01/01 00:09:17;;;;;;;1.60;1.40;;;3.50;98.20;;;;;;4968428;28;20551;-77
2021/01/01 00:11:47;;;;;;;1.67;1.40;;;3.60;98.20;;;;;;4976373;28;20509;-78
2021/01/01 00:14:16;;;;;;;1.60;1.40;;;3.60;98.20;;;;;;4968623;28;20467;-80
2021/01/01 00:16:44;;;;;;;1.67;1.50;;;3.60;98.20;;;;;;4982426;28;20493;-77
2021/01/01 00:19:11;;;;;;;1.60;1.40;;;3.60;98.20;;;;;;4975952;28;20482;-78
2021/01/01 00:21:39;;;;;;;1.60;1.40;;;3.60;98.20;;;;;;4976128;28;20472;-79
2021/01/01 00:24:07;;;;;;;1.67;1.50;;;3.60;98.20;;;;;;4974027;28;20498;-78
2021/01/01 00:26:33;;;;;;;1.63;1.33;;;3.60;98.20;;;;;;4964551;28;20485;-79
2021/01/01 00:29:00;;;;;;;1.70;1.40;;;3.60;98.20;;;;;;4966730;28;20545;-79
2021/01/01 00:31:27;;;;;;;1.63;1.40;;;3.60;98.20;;;;;;4971579;28;20467;-80
2021/01/01 00:33:54;;;;;;;1.60;1.40;;;3.60;98.20;;;;;;4968579;28;20493;-79
2021/01/01 00:36:21;;;;;;;1.60;1.40;;;3.70;98.20;;;;;;4973672;28;20473;-79
2021/01/01 00:38:51;;;;;;;1.63;1.40;;;3.60;98.20;;;;;;4964717;28;20494;-79
2021/01/01 00:41:23;;;;;;;1.60;1.40;;;3.70;98.20;;;;;;4969984;28;20466;-79
2021/01/01 00:43:50;;;;;;;1.60;1.40;;;3.70;98.20;;;;;;4975687;28;21140;-79
2021/01/01 00:46:17;;;;;;;1.67;1.50;;;3.70;98.20;;;;;;4969753;28;20561;-77
2021/01/01 00:48:43;;;;;;;1.67;1.30;;;3.70;98.20;;;;;;4975297;28;20496;-79
2021/01/01 00:51:09;;;;;;;1.70;1.50;;;3.60;98.20;;;;;;4978989;28;20664;-79
2021/01/01 00:53:36;;;;;;;1.70;1.50;;;3.60;98.20;;;;;;4971306;28;20513;-80
2021/01/01 00:56:03;;;;;;;1.70;1.60;;;3.60;98.20;;;;;;4969263;28;20888;-79
2021/01/01 00:58:30;;;;;;;1.60;1.40;;;3.60;98.20;;;;;;4968245;28;20927;-79
2021/01/01 01:00:56;;;;;;;1.63;1.43;;;3.60;98.20;;;;;;4970895;28;20509;-79
2021/01/01 01:03:22;;;;;;;1.60;1.40;;;3.60;98.20;;;;;;4972525;28;20490;-80
2021/01/01 01:05:49;;;;;;;1.60;1.40;;;3.60;98.20;;;;;;4989292;28;20493;-80
2021/01/01 01:08:15;;;;;;;1.70;1.60;;;3.60;98.20;;;;;;4971643;28;20498;-79
2021/01/01 01:10:44;;;;;;;1.60;1.40;;;3.60;98.20;;;;;;4966072;28;20542;-80
2021/01/01 01:13:11;;;;;;;1.63;1.40;;;3.60;98.20;;;;;;4973331;28;20490;-78
2021/01/01 01:15:38;;;;;;;1.70;1.57;;;3.60;98.20;;;;;;4976049;28;20474;-80
2021/01/01 01:18:04;;;;;;;1.60;1.40;;;3.60;98.20;;;;;;4970065;28;20467;-79
2021/01/01 01:20:30;;;;;;;1.63;1.40;;;3.60;98.20;;;;;;4981950;28;20525;-79
2021/01/01 01:22:57;;;;;;;1.60;1.40;;;3.60;98.20;;;;;;4970951;28;20609;-80
2021/01/01 01:25:23;;;;;;;1.63;1.40;;;3.60;98.20;;;;;;4973971;28;20987;-80
2021/01/01 01:27:50;;;;;;;1.60;1.33;;;3.60;98.20;;;;;;4966483;28;20553;-79
2021/01/01 01:30:18;;;;;;;1.60;1.40;;;3.60;98.20;;;;;;4969301;28;20842;-79
2021/01/01 01:32:44;;;;;;;1.70;1.50;;;3.60;98.20;;;;;;4976931;28;20486;-80
2021/01/01 01:35:11;;;;;;;1.63;1.40;;;3.60;98.20;;;;;;4971552;28;20487;-80
2021/01/01 01:37:38;;;;;;;1.70;1.60;;;3.60;98.20;;;;;;4971283;28;20493;-79
2021/01/01 01:40:06;;;;;;;1.63;1.30;;;3.60;98.20;;;;;;4964008;28;20508;-78
2021/01/01 01:42:33;;;;;;;1.70;1.50;;;3.60;98.20;;;;;;4980312;28;20906;-79
2021/01/01 01:44:59;;;;;;;1.70;1.50;;;3.60;98.20;;;;;;4975899;28;20574;-80
2021/01/01 01:47:27;;;;;;;1.60;1.40;;;3.60;98.20;;;;;;4966807;28;20486;-78
2021/01/01 01:49:54;;;;;;;1.60;1.40;;;3.60;98.20;;;;;;4967543;28;20537;-79
2021/01/01 01:52:21;;;;;;;1.70;1.43;;;3.60;98.20;;;;;;4974359;28;20551;-78
2021/01/01 01:54:48;;;;;;;3.20;2.90;;;3.60;98.20;;;;;;4973242;28;20525;-79
2021/01/01 01:57:15;;;;;;;1.90;1.40;;;3.60;98.20;;;;;;4970365;28;20518;-79
2021/01/01 01:59:43;;;;;;;1.60;1.40;;;3.60;98.20;;;;;;4969969;28;20549;-78
2021/01/01 02:02:09;;;;;;;1.60;1.30;;;3.60;98.20;;;;;;4975604;28;20472;-80
2021/01/01 02:04:37;;;;;;;1.60;1.40;;;3.70;98.20;;;;;;4965979;28;20550;-78
2021/01/01 02:07:04;;;;;;;1.70;1.50;;;3.70;98.20;;;;;;4969885;28;20465;-79
2021/01/01 02:09:31;;;;;;;1.60;1.40;;;3.70;98.20;;;;;;4972588;28;20482;-79
2021/01/01 02:11:57;;;;;;;1.70;1.40;;;3.70;98.20;;;;;;4970992;28;20513;-80
2021/01/01 02:14:24;;;;;;;1.70;1.40;;;3.70;98.20;;;;;;4966381;28;20509;-78
2021/01/01 02:16:51;;;;;;;1.80;1.70;;;3.70;98.20;;;;;;4970182;28;21009;-79
2021/01/01 02:19:18;;;;;;;1.67;1.40;;;3.70;98.20;;;;;;4974069;28;20559;-79
2021/01/01 02:21:48;;;;;;;1.60;1.30;;;3.60;98.20;;;;;;4979456;28;20463;-79
2021/01/01 02:24:15;;;;;;;1.60;1.30;;;3.60;98.20;;;;;;4970956;28;21345;-78
2021/01/01 02:26:41;;;;;;;1.70;1.40;;;3.60;98.20;;;;;;4966346;28;20865;-79
2021/01/01 02:29:08;;;;;;;1.60;1.30;;;3.60;98.20;;;;;;4970920;28;20537;-80
2021/01/01 02:31:34;;;;;;;1.70;1.50;;;3.60;98.20;;;;;;4967722;28;20502;-80
2021/01/01 02:34:01;;;;;;;1.70;1.40;;;3.50;98.20;;;;;;4964063;28;20578;-79
2021/01/01 02:36:27;;;;;;;1.63;1.40;;;3.50;98.20;;;;;;4969503;28;20473;-80
2021/01/01 02:38:54;;;;;;;1.60;1.37;;;3.50;98.20;;;;;;4972445;28;21014;-77
2021/01/01 02:41:21;;;;;;;1.70;1.60;;;3.50;98.20;;;;;;4974594;28;20462;-79
2021/01/01 02:43:48;;;;;;;1.70;1.50;;;3.50;98.20;;;;;;4967795;28;20506;-80
2021/01/01 02:46:14;;;;;;;1.60;1.30;;;3.50;98.20;;;;;;4982756;28;20468;-79
2021/01/01 02:48:40;;;;;;;1.60;1.37;;;3.40;98.20;;;;;;4975069;28;20490;-79
2021/01/01 02:51:07;;;;;;;1.70;1.40;;;3.40;98.20;;;;;;4980886;28;20465;-79
2021/01/01 02:53:33;;;;;;;1.70;1.40;;;3.40;98.20;;;;;;4971949;28;20486;-79
2021/01/01 02:56:00;;;;;;;1.60;1.30;;;3.50;98.20;;;;;;4961125;28;20479;-78
2021/01/01 02:58:27;;;;;;;1.63;1.37;;;3.50;98.20;;;;;;4969403;28;20506;-79
2021/01/01 03:00:53;;;;;;;1.60;1.30;;;3.50;98.20;;;;;;4970836;28;20561;-79
2021/01/01 03:03:20;;;;;;;1.60;1.40;;;3.50;98.20;;;;;;4966429;28;20493;-80
2021/01/01 03:05:47;;;;;;;1.70;1.50;;;3.50;98.20;;;;;;4966036;28;20495;-80
2021/01/01 03:08:13;;;;;;;1.70;1.40;;;3.50;98.20;;;;;;4966163;28;20530;-78
2021/01/01 03:10:40;;;;;;;1.60;1.37;;;3.50;98.20;;;;;;4963795;28;20466;-79
2021/01/01 03:13:06;;;;;;;1.63;1.40;;;3.50;98.20;;;;;;4967142;28;20494;-80
2021/01/01 03:15:34;;;;;;;1.70;1.50;;;3.50;98.20;;;;;;4972107;28;20518;-79
2021/01/01 03:18:00;;;;;;;1.70;1.40;;;3.50;98.20;;;;;;4980251;28;20631;-79
2021/01/01 03:20:27;;;;;;;1.60;1.40;;;3.50;98.20;;;;;;4980807;28;20517;-79
2021/01/01 03:22:53;;;;;;;1.60;1.50;;;3.50;98.20;;;;;;4980002;28;20463;-79
2021/01/01 03:25:20;;;;;;;1.60;1.40;;;3.50;98.20;;;;;;4974015;28;20467;-79
2021/01/01 03:27:46;;;;;;;1.63;1.40;;;3.50;98.20;;;;;;4966507;28;20606;-79
2021/01/01 03:30:13;;;;;;;1.60;1.40;;;3.50;98.20;;;;;;4965079;28;20569;-79
2021/01/01 03:32:41;;;;;;;1.60;1.40;;;3.50;98.20;;;;;;4967528;28;20534;-78
2021/01/01 03:35:08;;;;;;;1.67;1.40;;;3.40;98.20;;;;;;4985450;28;20500;-78
2021/01/01 03:37:36;;;;;;;1.70;1.40;;;3.40;98.20;;;;;;4980655;28;20839;-79
2021/01/01 03:40:05;;;;;;;1.60;1.40;;;3.40;98.20;;;;;;4973622;28;20517;-80
2021/01/01 03:42:31;;;;;;;1.70;1.40;;;3.40;98.20;;;;;;4973243;28;20597;-79
2021/01/01 03:44:58;;;;;;;1.60;1.43;;;3.40;98.20;;;;;;4975113;28;20498;-79
2021/01/01 03:47:24;;;;;;;1.60;1.40;;;3.40;98.20;;;;;;4977187;28;20864;-80
2021/01/01 03:49:51;;;;;;;1.67;1.40;;;3.40;98.20;;;;;;4980194;28;20914;-78
2021/01/01 03:52:18;;;;;;;1.70;1.40;;;3.40;98.20;;;;;;4980319;28;20569;-78
2021/01/01 03:54:44;;;;;;;1.67;1.43;;;3.40;98.20;;;;;;4976661;28;20489;-78
2021/01/01 03:57:11;;;;;;;1.70;1.50;;;3.40;98.20;;;;;;4966293;28;20507;-79
2021/01/01 03:59:37;;;;;;;1.67;1.50;;;3.40;98.20;;;;;;4969374;28;20565;-79
2021/01/01 04:02:04;;;;;;;1.67;1.40;;;3.40;98.20;;;;;;4983674;28;20462;-79
2021/01/01 04:04:30;;;;;;;1.60;1.30;;;3.40;98.20;;;;;;4983260;28;20521;-79
2021/01/01 04:06:58;;;;;;;1.60;1.40;;;3.40;98.20;;;;;;4968120;28;20519;-79
2021/01/01 04:09:24;;;;;;;1.60;1.40;;;3.40;98.20;;;;;;4971124;28;20873;-79
2021/01/01 04:11:50;;;;;;;1.63;1.40;;;3.40;98.20;;;;;;4982338;28;20489;-79
2021/01/01 04:14:17;;;;;;;1.70;1.40;;;3.40;98.20;;;;;;4975720;28;20569;-79
2021/01/01 04:16:44;;;;;;;1.60;1.40;;;3.30;98.20;;;;;;4970031;28;20461;-79
2021/01/01 04:19:11;;;;;;;1.67;1.40;;;3.30;98.20;;;;;;4976482;28;20490;-78
2021/01/01 04:21:38;;;;;;;1.70;1.60;;;3.30;98.20;;;;;;4975514;28;20474;-80
2021/01/01 04:24:06;;;;;;;1.70;1.53;;;3.30;98.20;;;;;;4975655;28;20549;-79
2021/01/01 04:26:32;;;;;;;1.67;1.40;;;3.30;98.20;;;;;;4976339;28;21076;-79
2021/01/01 04:28:59;;;;;;;1.60;1.40;;;3.30;98.20;;;;;;4989678;28;20846;-79
2021/01/01 04:31:25;;;;;;;1.63;1.40;;;3.30;98.20;;;;;;4972167;28;20557;-79
2021/01/01 04:33:52;;;;;;;1.70;1.50;;;3.30;98.20;;;;;;4965460;28;20482;-79
2021/01/01 04:36:18;;;;;;;1.60;1.40;;;3.30;98.20;;;;;;4972302;28;20949;-78
2021/01/01 04:38:45;;;;;;;1.60;1.50;;;3.30;98.20;;;;;;5001638;23;20490;-79
2021/01/01 04:41:12;;;;;;;1.60;1.30;;;3.30;98.20;;;;;;5034287;28;20488;-78
2021/01/01 04:43:39;;;;;;;1.60;1.40;;;3.30;98.20;;;;;;5039401;28;20488;-77
2021/01/01 04:46:05;;;;;;;1.70;1.40;;;3.30;98.20;;;;;;5040732;28;20463;-79
2021/01/01 04:48:32;;;;;;;1.70;1.60;;;3.30;98.20;;;;;;5038430;28;20490;-78
2021/01/01 04:50:59;;;;;;;1.60;1.40;;;3.30;98.20;;;;;;5039397;28;20460;-78
2021/01/01 04:53:28;;;;;;;1.63;1.40;;;3.30;98.20;;;;;;5039459;28;20523;-80
2021/01/01 04:55:55;;;;;;;1.70;1.47;;;3.30;98.20;;;;;;5036756;28;20876;-79
2021/01/01 04:58:23;;;;;;;1.60;1.50;;;3.30;98.20;;;;;;5038447;28;20521;-79
2021/01/01 05:00:49;;;;;;;1.67;1.40;;;3.30;98.20;;;;;;5035235;28;20523;-79
2021/01/01 05:03:16;;;;;;;1.67;1.50;;;3.30;98.20;;;;;;5037500;28;20491;-78
2021/01/01 05:05:49;;;;;;;1.60;1.30;;;3.30;98.20;;;;;;5030652;28;20512;-79
2021/01/01 05:08:17;;;;;;;1.70;1.60;;;3.30;98.20;;;;;;5037443;28;20911;-79
2021/01/01 05:10:44;;;;;;;1.70;1.50;;;3.30;98.20;;;;;;5037650;28;20470;-78
2021/01/01 05:13:11;;;;;;;1.63;1.50;;;3.30;98.20;;;;;;5036576;28;20523;-79
2021/01/01 05:15:39;;;;;;;1.60;1.40;;;3.30;98.20;;;;;;5032545;28;20534;-80
2021/01/01 05:18:17;;;;;;;1.60;1.47;;;3.30;98.20;;;;;;5038339;28;20452;-79
2021/01/01 05:20:44;;;;;;;1.60;1.50;;;3.30;98.20;;;;;;5045280;28;20466;-78
2021/01/01 05:23:19;;;;;;;1.70;1.40;;;3.30;98.20;;;;;;5039063;28;20513;-79
2021/01/01 05:25:46;;;;;;;1.60;1.50;;;3.30;98.20;;;;;;5034225;28;20459;-79
2021/01/01 05:28:13;;;;;;;1.60;1.40;;;3.30;98.20;;;;;;5039036;28;20463;-79
2021/01/01 05:30:41;;;;;;;1.60;1.40;;;3.30;98.20;;;;;;5036432;28;20503;-78
2021/01/01 05:33:13;;;;;;;1.67;1.50;;;3.30;98.20;;;;;;5031861;28;20491;-78
2021/01/01 05:35:39;;;;;;;1.67;1.50;;;3.30;98.20;;;;;;5036069;28;20526;-80
2021/01/01 05:38:17;;;;;;;1.60;1.50;;;3.30;98.20;;;;;;5033186;28;21086;-79
2021/01/01 05:40:48;;;;;;;1.70;1.50;;;3.30;98.20;;;;;;5030536;28;20668;-79
2021/01/01 05:43:18;;;;;;;1.60;1.40;;;3.30;98.20;;;;;;5033995;28;20929;-78
2021/01/01 05:45:46;;;;;;;1.70;1.60;;;3.30;98.20;;;;;;5037523;28;20491;-79
2021/01/01 05:48:12;;;;;;;1.63;1.40;;;3.30;98.20;;;;;;5035150;28;20483;-81
2021/01/01 05:50:39;;;;;;;1.60;1.40;;;3.30;98.20;;;;;;5045264;28;20456;-79
2021/01/01 05:53:13;;;;;;;1.60;1.50;;;3.30;98.20;;;;;;5038282;28;20503;-80
2021/01/01 05:55:40;;;;;;;1.60;1.40;;;3.30;98.20;;;;;;5034623;28;20501;-77
2021/01/01 05:58:19;;;;;;;1.60;1.40;;;3.20;98.20;;;;;;5037357;28;20491;-77
2021/01/01 06:00:50;;;;;;;1.63;1.50;;;3.20;98.20;;;;;;5029681;28;20505;-80
2021/01/01 06:03:21;;;;;;;1.70;1.43;;;3.20;98.20;;;;;;5032183;28;20474;-78
2021/01/01 06:05:52;;;;;;;1.63;1.47;;;3.20;98.20;;;;;;5036171;28;20499;-81
2021/01/01 06:08:24;;;;;;;1.60;1.40;;;3.20;98.20;;;;;;5036180;28;20495;-81
2021/01/01 06:10:52;;;;;;;1.70;1.50;;;3.20;98.20;;;;;;5035868;28;20521;-79
2021/01/01 06:13:20;;;;;;;1.67;1.50;;;3.20;98.20;;;;;;5032464;28;20490;-79
2021/01/01 06:15:57;;;;;;;1.67;1.50;;;3.10;98.20;;;;;;5036413;28;20463;-79
2021/01/01 06:18:31;;;;;;;1.70;1.40;;;3.10;98.20;;;;;;5035052;28;20489;-81
2021/01/01 06:20:59;;;;;;;1.60;1.40;;;3.10;98.20;;;;;;5042306;28;20471;-80
2021/01/01 06:23:34;;;;;;;1.70;1.53;;;3.10;98.20;;;;;;5034491;28;20464;-79
2021/01/01 06:26:01;;;;;;;1.67;1.50;;;3.10;98.20;;;;;;5036865;28;20463;-81
2021/01/01 06:28:28;;;;;;;1.60;1.43;;;3.10;98.20;;;;;;5032626;28;20850;-81
2021/01/01 06:30:57;;;;;;;1.60;1.40;;;3.10;98.20;;;;;;5034802;28;20813;-79
2021/01/01 06:33:24;;;;;;;1.70;1.60;;;3.10;98.20;;;;;;5032586;28;20522;-79
2021/01/01 06:35:51;;;;;;;1.70;1.50;;;3.10;98.20;;;;;;5029597;28;20484;-79
2021/01/01 06:38:40;;;;;;;1.70;1.50;;;3.10;98.20;;;;;;5029443;28;20468;-76
2021/01/01 06:41:13;;;;;;;1.70;1.50;;;3.10;98.20;;;;;;5029634;28;20538;-81
2021/01/01 06:43:53;;;;;;;1.70;1.50;;;3.00;98.20;;;;;;5034329;28;20514;-80
2021/01/01 06:46:34;;;;;;;1.60;1.40;;;3.00;98.20;;;;;;5033579;28;21015;-79
2021/01/01 06:49:02;;;;;;;1.63;1.50;;;3.00;98.20;;;;;;5039904;28;20531;-78
2021/01/01 06:51:30;;;;;;;1.70;1.50;;;3.10;98.20;;;;;;5042268;28;20951;-80
2021/01/01 06:54:12;;;;;;;1.70;1.50;;;3.10;98.20;;;;;;5032811;28;20902;-79
2021/01/01 06:56:41;;;;;;;1.63;1.50;;;3.10;98.20;;;;;;5033823;28;20460;-80
2021/01/01 06:59:09;;;;;;;1.63;1.50;;;3.10;98.20;;;;;;5025852;28;21314;-79
2021/01/01 07:01:41;;;;;;;1.70;1.50;;;3.10;98.20;;;;;;5036311;28;20459;-79
2021/01/01 07:04:07;;;;;;;1.70;1.50;;;3.10;98.20;;;;;;5033873;28;20458;-78
2021/01/01 07:06:36;;;;;;;1.70;1.40;;;3.10;98.20;;;;;;5031431;28;20515;-78
2021/01/01 07:09:14;;;;;;;1.70;1.60;;;3.10;98.20;;;;;;5029136;28;21086;-78
2021/01/01 07:11:44;;;;;;;1.63;1.43;;;3.00;98.20;;;;;;5028135;28;20485;-77
2021/01/01 07:14:12;;;;;;;1.60;1.40;;;3.00;98.20;;;;;;5035225;28;20986;-78
2021/01/01 07:16:42;;;;;;;1.67;1.43;;;3.10;98.20;;;;;;5029915;28;20475;-78
2021/01/01 07:19:11;;;;;;;1.70;1.50;;;3.10;98.20;;;;;;5029033;28;20549;-77
2021/01/01 07:21:39;;;;;;;1.60;1.40;;;3.10;98.20;;;;;;5034122;28;20475;-78
2021/01/01 07:24:07;;;;;;;1.67;1.40;;;3.00;98.20;;;;;;5032430;28;20471;-78
2021/01/01 07:26:34;;;;;;;1.67;1.40;;;3.00;98.20;;;;;;5028876;28;20939;-77
2021/01/01 07:29:02;;;;;;;1.70;1.60;;;3.00;98.20;;;;;;5028846;28;20513;-78
2021/01/01 07:31:29;;;;;;;1.70;1.50;;;3.00;98.20;;;;;;5028560;28;20503;-80
2021/01/01 07:33:56;;;;;;;1.63;1.40;;;3.00;98.20;;;;;;5030338;28;20920;-77
2021/01/01 07:36:23;;;;;;;1.60;1.43;;;3.00;98.20;;;;;;5028331;28;20487;-78
2021/01/01 07:38:50;;;;;;;1.60;1.50;;;3.10;98.20;;;;;;5027174;28;20496;-78
2021/01/01 07:41:22;;;;;;;1.60;1.40;;;3.10;98.20;;;;;;5025675;28;20495;-77
2021/01/01 07:43:50;;;;;;;1.60;1.40;;;3.10;98.20;;;;;;5025802;28;20467;-78
2021/01/01 07:46:18;;;;;;;1.60;1.50;;;3.10;98.20;;;;;;5026752;28;20463;-77
2021/01/01 07:48:44;;;;;;;1.63;1.50;;;3.10;98.20;;;;;;5033160;28;20475;-79
2021/01/01 07:51:12;;;;;;;1.70;1.60;;;3.10;98.20;;;;;;5034229;28;20499;-79
2021/01/01 07:53:39;;;;;;;1.60;1.40;;;3.10;98.20;;;;;;5029323;28;20555;-78
2021/01/01 07:56:07;;;;;;;1.70;1.50;;;3.10;98.20;;;;;;5028501;28;20499;-78
2021/01/01 07:58:34;;;;;;;1.80;1.70;;;3.10;98.20;;;;;;5029945;28;20563;-78
2021/01/01 08:01:06;;;;;;;1.60;1.40;;;3.00;98.20;;;;;;5028064;28;20466;-77
2021/01/01 08:03:35;;;;;;;1.60;1.40;;;3.00;98.20;;;;;;5028079;28;20463;-78
2021/01/01 08:06:02;;;;;;;1.73;1.63;;;3.00;98.20;;;;;;5031285;28;20463;-77
2021/01/01 08:08:29;;;;;;;1.83;1.73;;;3.00;98.20;;;;;;5027781;28;20483;-78
2021/01/01 08:10:57;;;;;;;2.37;2.17;;;3.00;98.20;;;;;;5028130;28;20491;-77
2021/01/01 08:13:25;;;;;;;1.67;1.50;;;3.00;98.20;;;;;;5027295;28;20585;-78
2021/01/01 08:15:54;;;;;;;1.63;1.40;;;2.90;98.20;;;;;;5031805;28;20837;-79
2021/01/01 08:18:21;;;;;;;1.73;1.63;;;3.00;98.20;;;;;;5034739;28;20475;-77
2021/01/01 08:20:49;;;;;;;1.67;1.40;;;3.00;98.20;;;;;;5041071;28;20483;-78
2021/01/01 08:23:17;;;;;;;1.70;1.50;;;3.00;98.20;;;;;;5029890;28;20487;-78
2021/01/01 08:25:46;;;;;;;1.60;1.40;;;3.00;98.20;;;;;;5034056;28;20497;-77
2021/01/01 08:28:18;;;;;;;1.60;1.40;;;3.00;98.20;;;;;;5036688;28;20821;-79
2021/01/01 08:30:46;;;;;;;1.70;1.50;;;3.00;98.20;;;;;;5030248;28;20470;-78
2021/01/01 08:33:12;;;;;;;1.60;1.50;;;3.00;98.20;;;;;;5031215;28;20475;-79
2021/01/01 08:35:39;;;;;;;1.67;1.50;;;3.00;98.20;;;;;;5033754;28;20491;-78
2021/01/01 08:38:19;;;;;;;1.60;1.40;;;3.00;98.20;;;;;;5032729;28;20472;-78
2021/01/01 08:40:53;;;;;;;1.70;1.60;;;3.10;98.20;;;;;;5029693;28;20471;-78
2021/01/01 08:43:20;;;;;;;1.63;1.40;;;3.10;98.20;;;;;;5033306;28;20457;-78
2021/01/01 08:45:47;;;;;;;1.67;1.50;;;3.10;98.20;;;;;;5034177;28;20951;-77
2021/01/01 08:48:15;;;;;;;1.60;1.40;;;3.10;98.20;;;;;;5033007;28;20517;-78
2021/01/01 08:50:46;;;;;;;1.67;1.40;;;3.10;98.20;;;;;;5030700;28;20567;-76
2021/01/01 08:53:13;;;;;;;1.67;1.40;;;3.20;98.20;;;;;;5029909;28;20489;-78
2021/01/01 08:55:41;;;;;;;1.67;1.47;;;3.20;98.20;;;;;;5033010;28;20501;-78
2021/01/01 08:58:10;;;;;;;1.60;1.40;;;3.30;98.20;;;;;;5032700;28;20488;-78
2021/01/01 09:00:39;;;;;;;1.70;1.50;;;3.30;98.20;;;;;;5029221;28;20467;-78
2021/01/01 09:03:06;;;;;;;1.63;1.50;;;3.30;98.20;;;;;;5032813;28;20498;-78
2021/01/01 09:05:33;;;;;;;1.70;1.60;;;3.40;98.20;;;;;;5030759;28;20471;-77
2021/01/01 09:08:11;;;;;;;1.60;1.40;;;3.40;98.20;;;;;;5029662;28;20464;-78
2021/01/01 09:10:39;;;;;;;1.63;1.50;;;3.40;98.20;;;;;;5031311;28;20487;-78
2021/01/01 09:13:18;;;;;;;1.60;1.33;;;3.50;98.20;;;;;;5035995;28;20830;-78
2021/01/01 09:15:46;;;;;;;1.63;1.40;;;3.50;98.20;;;;;;5031612;28;20621;-77
2021/01/01 09:18:13;;;;;;;1.67;1.50;;;3.60;98.20;;;;;;5029168;28;20467;-78
2021/01/01 09:20:42;;;;;;;1.67;1.50;;;3.70;98.20;;;;;;5038294;28;20500;-78
2021/01/01 09:23:10;;;;;;;1.63;1.40;;;3.70;98.20;;;;;;5030462;28;20919;-77
2021/01/01 09:25:37;;;;;;;1.60;1.30;;;3.70;98.20;;;;;;5032169;28;20464;-78
2021/01/01 09:28:05;;;;;;;1.60;1.40;;;3.80;98.20;;;;;;5031612;28;20494;-78
2021/01/01 09:30:35;;;;;;;1.67;1.43;;;3.90;98.20;;;;;;5033440;28;20476;-79
2021/01/01 09:33:04;;;;;;;1.60;1.40;;;3.90;98.20;;;;;;5030410;28;20566;-77
2021/01/01 09:35:31;;;;;;;1.63;1.37;;;4.00;98.20;;;;;;5032207;28;20520;-78
2021/01/01 09:37:59;;;;;;;1.60;1.40;;;4.00;98.20;;;;;;5030947;28;21062;-77
2021/01/01 09:40:27;;;;;;;1.63;1.40;;;4.10;98.20;;;;;;5030171;28;20522;-77
2021/01/01 09:42:54;;;;;;;1.60;1.40;;;4.20;98.20;;;;;;5030462;28;20456;-80
2021/01/01 09:45:21;;;;;;;1.67;1.40;;;4.20;98.20;;;;;;5031642;28;20496;-79
2021/01/01 09:47:48;;;;;;;1.60;1.40;;;4.30;98.20;;;;;;5032410;28;20467;-78
2021/01/01 09:50:15;;;;;;;1.67;1.33;;;4.30;98.20;;;;;;5034704;28;20902;-78
2021/01/01 09:52:41;;;;;;;1.60;1.40;;;4.40;98.20;;;;;;5029787;28;20491;-77
2021/01/01 09:55:09;;;;;;;1.60;1.40;;;4.50;98.20;;;;;;5026806;28;20468;-78
2021/01/01 09:57:38;;;;;;;1.63;1.40;;;4.50;98.20;;;;;;5031959;28;20514;-78
2021/01/01 10:00:06;;;;;;;1.67;1.37;;;4.60;98.20;;;;;;5030942;28;20488;-78
2021/01/01 10:02:33;;;;;;;1.63;1.30;;;4.60;98.20;;;;;;5031242;28;20463;-79
2021/01/01 10:05:00;;;;;;;2.13;1.93;;;4.70;98.20;;;;;;5029255;28;20498;-78
2021/01/01 10:07:27;;;;;;;1.60;1.40;;;4.80;98.20;;;;;;5031603;28;20463;-78
2021/01/01 10:09:53;;;;;;;1.60;1.40;;;4.80;98.20;;;;;;5029160;28;20508;-80
2021/01/01 10:12:20;;;;;;;1.67;1.30;;;4.90;98.20;;;;;;5028043;28;20996;-78
2021/01/01 10:14:46;;;;;;;1.70;1.50;;;4.90;98.20;;;;;;5027687;28;20519;-77
2021/01/01 10:17:13;;;;;;;1.60;1.30;;;5.00;98.20;;;;;;5029445;28;20468;-78
2021/01/01 10:19:41;;;;;;;1.70;1.50;;;5.00;98.20;;;;;;5029989;28;20491;-77
2021/01/01 10:22:08;;;;;;;1.60;1.30;;;5.10;98.20;;;;;;5030494;28;20475;-79
2021/01/01 10:24:35;;;;;;;1.70;1.30;;;5.10;98.20;;;;;;5028487;28;20470;-77
2021/01/01 10:27:01;;;;;;;1.60;1.30;;;5.20;98.20;;;;;;5029457;28;20510;-77
2021/01/01 10:29:28;;;;;;;1.70;1.30;;;5.30;98.20;;;;;;5028104;28;20488;-78
2021/01/01 10:31:54;;;;;;;1.60;1.30;;;5.40;98.20;;;;;;5026088;28;20566;-78
2021/01/01 10:34:21;;;;;;;1.60;1.30;;;5.40;98.20;;;;;;5030581;28;20547;-78
2021/01/01 10:36:53;;;;;;;1.63;1.40;;;5.50;98.20;;;;;;5028258;28;20463;-78
2021/01/01 10:39:20;;;;;;;1.60;1.30;;;5.60;98.20;;;;;;5029279;28;20491;-78
2021/01/01 10:41:48;;;;;;;1.63;1.27;;;5.60;98.20;;;;;;5030451;28;20467;-78
2021/01/01 10:44:15;;;;;;;1.60;1.30;;;5.60;98.20;;;;;;5029877;28;20514;-78
2021/01/01 10:46:42;;;;;;;1.70;1.33;;;5.70;98.20;;;;;;5028236;28;20478;-78
2021/01/01 10:49:08;;;;;;;1.70;1.50;;;5.80;98.20;;;;;;5026713;28;21053;-78
2021/01/01 10:51:35;;;;;;;1.70;1.30;;;5.90;98.20;;;;;;5032214;28;20456;-79
2021/01/01 10:54:01;;;;;;;3.40;2.53;;;5.90;98.20;;;;;;5026947;28;20586;-78
2021/01/01 10:56:29;;;;;;;1.67;1.30;;;6.00;98.20;;;;;;5024239;28;20465;-78
2021/01/01 10:58:55;;;;;;;1.63;1.30;;;6.00;98.20;;;;;;5027431;28;20553;-77
2021/01/01 11:01:23;;;;;;;1.70;1.40;;;6.10;98.20;;;;;;5027879;28;20495;-77
2021/01/01 11:03:50;;;;;;;1.63;1.30;;;6.10;98.20;;;;;;5028739;28;20995;-78
2021/01/01 11:06:17;;;;;;;1.70;1.33;;;6.20;98.20;;;;;;5027662;28;20474;-77
2021/01/01 11:08:45;;;;;;;1.70;1.40;;;6.20;98.20;;;;;;5028982;28;20554;-78
2021/01/01 11:11:13;;;;;;;1.60;1.30;;;6.20;98.20;;;;;;5024469;28;20884;-75
2021/01/01 11:13:46;;;;;;;1.60;1.30;;;6.30;98.20;;;;;;5027670;28;20514;-76
2021/01/01 12:20:47;;;;;;;1.60;1.27;;;6.90;98.20;;;;;;5021221;28;20852;-77
2021/01/01 12:23:17;;;;;;;1.60;1.20;;;7.00;98.20;;;;;;5027272;28;20593;-78
2021/01/01 12:25:44;;;;;;;1.60;1.20;;;7.10;98.20;;;;;;5038418;28;20473;-78
2021/01/01 12:28:12;;;;;;;1.70;1.30;;;7.20;98.20;;;;;;5023404;28;20521;-78
2021/01/01 12:30:41;;;;;;;1.70;1.40;;;7.30;98.20;;;;;;5026447;28;20621;-80
2021/01/01 12:33:09;;;;;;;1.70;1.30;;;7.40;98.20;;;;;;5027222;28;20495;-76
2021/01/01 12:35:37;;;;;;;1.67;1.20;;;7.40;98.20;;;;;;5025599;28;20517;-77
2021/01/01 12:38:05;;;;;;;1.60;1.20;;;7.40;98.20;;;;;;5021763;28;20843;-76
2021/01/01 12:40:34;;;;;;;1.63;1.23;;;7.40;98.20;;;;;;5024916;28;20478;-76
2021/01/01 12:43:01;;;;;;;1.70;1.50;;;7.30;98.20;;;;;;5022484;28;20472;-77
2021/01/01 12:45:29;;;;;;;1.70;1.20;;;7.30;98.20;;;;;;5020597;28;20613;-76
2021/01/01 12:47:57;;;;;;;1.60;1.20;;;7.20;98.20;;;;;;5024122;28;20478;-77
2021/01/01 12:50:42;;;;;;;1.70;1.30;;;7.20;98.20;;;;;;5032770;28;20486;-77
2021/01/01 12:53:08;;;;;;;1.67;1.27;;;7.20;98.20;;;;;;5025752;28;20994;-77
2021/01/01 12:55:35;;;;;;;1.70;1.30;;;7.20;98.20;;;;;;5020730;28;20464;-77
2021/01/01 12:58:04;;;;;;;1.60;1.10;;;7.20;98.20;;;;;;5023075;28;20476;-77
2021/01/01 13:00:34;;;;;;;1.63;1.30;;;7.20;98.20;;;;;;5024313;28;20855;-77
2021/01/01 13:03:11;;;;;;;1.70;1.40;;;7.20;98.20;;;;;;5014502;28;20610;-77
2021/01/01 13:05:38;;;;;;;1.70;1.40;;;7.10;98.20;;;;;;5018043;28;20527;-76
2021/01/01 13:08:32;;;;;;;1.60;1.20;;;6.90;98.20;;;;;;5020784;28;20468;-77
2021/01/01 13:10:59;;;;;;;1.60;1.20;;;6.80;98.20;;;;;;5008676;28;20465;-77
2021/01/01 13:13:29;;;;;;;1.60;1.20;;;6.70;98.20;;;;;;5021708;28;20483;-76
2021/01/01 13:16:08;;;;;;;1.60;1.20;;;6.70;98.20;;;;;;5023187;28;20562;-77
2021/01/01 13:18:36;;;;;;;1.70;1.60;;;6.70;98.20;;;;;;5021839;28;20990;-75
2021/01/01 13:21:06;;;;;;;1.70;1.33;;;6.60;98.20;;;;;;5022310;28;20479;-77
2021/01/01 13:23:38;;;;;;;1.60;1.20;;;6.60;98.20;;;;;;5020937;28;20495;-77
2021/01/01 13:26:05;;;;;;;1.60;1.20;;;6.60;98.20;;;;;;5022466;28;20608;-79
2021/01/01 13:28:33;;;;;;;1.60;1.20;;;6.50;98.20;;;;;;5020673;28;20491;-76
2021/01/01 13:30:59;;;;;;;1.70;1.40;;;6.40;98.20;;;;;;5026907;28;20479;-77
2021/01/01 13:33:26;;;;;;;1.63;1.30;;;6.40;98.20;;;;;;5031486;28;20514;-77
2021/01/01 13:35:59;;;;;;;1.60;1.20;;;6.40;98.20;;;;;;5030344;28;22407;-77
2021/01/01 13:38:25;;;;;;;1.70;1.30;;;6.30;98.20;;;;;;5024556;28;20485;-77
2021/01/01 13:40:53;;;;;;;1.60;1.27;;;6.30;98.20;;;;;;5022878;28;20467;-75
2021/01/01 13:43:21;;;;;;;1.60;1.30;;;6.20;98.20;;;;;;5024613;28;20506;-76
2021/01/01 13:45:48;;;;;;;1.63;1.30;;;6.20;98.20;;;;;;5021715;28;20998;-76
2021/01/01 13:48:15;;;;;;;1.60;1.30;;;6.10;98.20;;;;;;5027008;28;20491;-77
2021/01/01 13:50:49;;;;;;;1.60;1.30;;;6.00;98.20;;;;;;5025009;28;20636;-77
2021/01/01 13:53:15;;;;;;;1.67;1.37;;;6.00;98.20;;;;;;5027799;28;20918;-77
2021/01/01 13:55:42;;;;;;;1.60;1.30;;;5.90;98.20;;;;;;5018130;28;20502;-78
2021/01/01 13:58:09;;;;;;;1.60;1.20;;;5.90;98.20;;;;;;5022085;28;20564;-78
2021/01/01 14:00:36;;;;;;;1.60;1.20;;;5.80;98.20;;;;;;5023491;28;20459;-78
2021/01/01 14:03:03;;;;;;;1.60;1.30;;;5.80;98.20;;;;;;5020433;28;20547;-78
2021/01/01 14:05:29;;;;;;;1.67;1.30;;;5.70;98.20;;;;;;5020277;28;20871;-78
2021/01/01 14:07:56;;;;;;;1.60;1.30;;;5.60;98.20;;;;;;5018943;28;20555;-78